sensor_id;sensor_type;location;lat;lon;timestamp;P1;durP1;ratioP1;P2;durP2;ratioP2
64832;SDS011;51290;45.060;38.948;2024-02-15T00:00:13;15.20;;;11.60;;
64832;SDS011;51290;45.060;38.948;2024-02-15T00:02:40;17.25;;;12.40;;
64832;SDS011;51290;45.060;38.948;2024-02-15T00:05:07;15.05;;;11.07;;
64832;SDS011;51290;45.060;38.948;2024-02-15T00:07:33;18.67;;;13.95;;
64832;SDS011;51290;45.060;38.948;2024-02-15T00:10:00;14.75;;;12.35;;
64832;SDS011;51290;45.060;38.948;2024-02-15T00:12:26;19.98;;;13.48;;
64832;SDS011;51290;45.060;38.948;2024-02-15T00:14:52;22.98;;;12.00;;
64832;SDS011;51290;45.060;38.948;2024-02-15T00:17:18;17.02;;;13.82;;
64832;SDS011;51290;45.060;38.948;2024-02-15T00:19:45;18.45;;;14.20;;
64832;SDS011;51290;45.060;38.948;2024-02-15T00:22:12;15.65;;;12.95;;
64832;SDS011;51290;45.060;38.948;2024-02-15T00:24:38;14.52;;;11.70;;
64832;SDS011;51290;45.060;38.948;2024-02-15T00:27:04;15.77;;;13.10;;
64832;SDS011;51290;45.060;38.948;2024-02-15T00:29:30;24.75;;;19.75;;
64832;SDS011;51290;45.060;38.948;2024-02-15T00:31:57;27.48;;;17.50;;
64832;SDS011;51290;45.060;38.948;2024-02-15T00:34:23;24.52;;;17.95;;
64832;SDS011;51290;45.060;38.948;2024-02-15T00:36:51;22.02;;;17.25;;
64832;SDS011;51290;45.060;38.948;2024-02-15T00:39:17;25.70;;;22.17;;
64832;SDS011;51290;45.060;38.948;2024-02-15T00:41:46;25.52;;;22.45;;
64832;SDS011;51290;45.060;38.948;2024-02-15T00:44:12;38.90;;;25.23;;
64832;SDS011;51290;45.060;38.948;2024-02-15T00:46:38;23.45;;;18.40;;
64832;SDS011;51290;45.060;38.948;2024-02-15T00:49:04;31.10;;;23.02;;
64832;SDS011;51290;45.060;38.948;2024-02-15T00:51:36;30.13;;;23.52;;
64832;SDS011;51290;45.060;38.948;2024-02-15T00:54:02;34.25;;;26.38;;
64832;SDS011;51290;45.060;38.948;2024-02-15T00:56:28;26.02;;;21.40;;
64832;SDS011;51290;45.060;38.948;2024-02-15T00:59:01;33.38;;;23.52;;
64832;SDS011;51290;45.060;38.948;2024-02-15T01:01:28;24.90;;;21.58;;
64832;SDS011;51290;45.060;38.948;2024-02-15T01:03:54;27.77;;;20.45;;
64832;SDS011;51290;45.060;38.948;2024-02-15T01:06:20;33.80;;;24.30;;
64832;SDS011;51290;45.060;38.948;2024-02-15T01:08:47;29.58;;;22.23;;
64832;SDS011;51290;45.060;38.948;2024-02-15T01:11:13;23.52;;;19.35;;
64832;SDS011;51290;45.060;38.948;2024-02-15T01:13:39;31.90;;;25.30;;
64832;SDS011;51290;45.060;38.948;2024-02-15T01:16:06;30.60;;;25.13;;
64832;SDS011;51290;45.060;38.948;2024-02-15T01:18:33;24.50;;;17.25;;
64832;SDS011;51290;45.060;38.948;2024-02-15T01:21:00;30.77;;;24.00;;
64832;SDS011;51290;45.060;38.948;2024-02-15T01:23:26;31.83;;;24.67;;
64832;SDS011;51290;45.060;38.948;2024-02-15T01:25:52;31.75;;;24.88;;
64832;SDS011;51290;45.060;38.948;2024-02-15T01:28:18;41.92;;;29.13;;
64832;SDS011;51290;45.060;38.948;2024-02-15T01:30:44;30.00;;;18.48;;
64832;SDS011;51290;45.060;38.948;2024-02-15T01:33:12;44.70;;;28.80;;
64832;SDS011;51290;45.060;38.948;2024-02-15T01:35:38;30.63;;;20.73;;
64832;SDS011;51290;45.060;38.948;2024-02-15T01:38:07;24.25;;;16.63;;
64832;SDS011;51290;45.060;38.948;2024-02-15T01:40:33;25.25;;;17.65;;
64832;SDS011;51290;45.060;38.948;2024-02-15T01:43:00;42.80;;;29.20;;
64832;SDS011;51290;45.060;38.948;2024-02-15T01:45:26;25.38;;;17.17;;
64832;SDS011;51290;45.060;38.948;2024-02-15T01:47:53;35.20;;;26.58;;
64832;SDS011;51290;45.060;38.948;2024-02-15T01:50:20;26.85;;;21.02;;
64832;SDS011;51290;45.060;38.948;2024-02-15T01:52:48;31.05;;;18.83;;
64832;SDS011;51290;45.060;38.948;2024-02-15T01:55:17;38.53;;;28.50;;
64832;SDS011;51290;45.060;38.948;2024-02-15T01:57:44;38.58;;;23.70;;
64832;SDS011;51290;45.060;38.948;2024-02-15T02:00:11;22.15;;;15.90;;
64832;SDS011;51290;45.060;38.948;2024-02-15T02:02:39;31.50;;;22.55;;
64832;SDS011;51290;45.060;38.948;2024-02-15T02:05:07;29.92;;;22.20;;
64832;SDS011;51290;45.060;38.948;2024-02-15T02:07:34;36.08;;;28.17;;
64832;SDS011;51290;45.060;38.948;2024-02-15T02:10:01;25.30;;;16.80;;
64832;SDS011;51290;45.060;38.948;2024-02-15T02:12:27;44.70;;;27.48;;
64832;SDS011;51290;45.060;38.948;2024-02-15T02:14:56;36.28;;;26.83;;
64832;SDS011;51290;45.060;38.948;2024-02-15T02:17:22;32.28;;;23.33;;
64832;SDS011;51290;45.060;38.948;2024-02-15T02:19:48;34.78;;;24.10;;
64832;SDS011;51290;45.060;38.948;2024-02-15T02:22:18;35.15;;;22.58;;
64832;SDS011;51290;45.060;38.948;2024-02-15T02:27:36;26.92;;;19.70;;
64832;SDS011;51290;45.060;38.948;2024-02-15T02:30:05;43.90;;;33.90;;
64832;SDS011;51290;45.060;38.948;2024-02-15T02:32:45;26.55;;;16.63;;
64832;SDS011;51290;45.060;38.948;2024-02-15T02:35:14;21.48;;;17.65;;
64832;SDS011;51290;45.060;38.948;2024-02-15T02:37:41;40.10;;;27.63;;
64832;SDS011;51290;45.060;38.948;2024-02-15T02:40:08;37.70;;;27.77;;
64832;SDS011;51290;45.060;38.948;2024-02-15T02:45:18;32.50;;;23.35;;
64832;SDS011;51290;45.060;38.948;2024-02-15T02:47:54;37.80;;;25.05;;
64832;SDS011;51290;45.060;38.948;2024-02-15T02:50:20;30.13;;;24.77;;
64832;SDS011;51290;45.060;38.948;2024-02-15T02:52:48;30.63;;;22.67;;
64832;SDS011;51290;45.060;38.948;2024-02-15T02:55:14;32.30;;;25.17;;
64832;SDS011;51290;45.060;38.948;2024-02-15T02:57:41;37.30;;;26.95;;
64832;SDS011;51290;45.060;38.948;2024-02-15T03:00:11;33.85;;;23.55;;
64832;SDS011;51290;45.060;38.948;2024-02-15T03:02:40;29.30;;;24.00;;
64832;SDS011;51290;45.060;38.948;2024-02-15T03:05:07;28.75;;;24.13;;
64832;SDS011;51290;45.060;38.948;2024-02-15T03:07:37;27.88;;;23.23;;
64832;SDS011;51290;45.060;38.948;2024-02-15T03:10:05;28.55;;;23.40;;
64832;SDS011;51290;45.060;38.948;2024-02-15T03:12:37;26.70;;;20.30;;
64832;SDS011;51290;45.060;38.948;2024-02-15T03:15:03;32.05;;;22.38;;
64832;SDS011;51290;45.060;38.948;2024-02-15T03:17:30;29.27;;;20.20;;
64832;SDS011;51290;45.060;38.948;2024-02-15T03:19:59;29.67;;;24.23;;
64832;SDS011;51290;45.060;38.948;2024-02-15T03:22:27;28.25;;;22.45;;
64832;SDS011;51290;45.060;38.948;2024-02-15T03:24:54;35.58;;;27.38;;
64832;SDS011;51290;45.060;38.948;2024-02-15T03:27:20;27.83;;;19.83;;
64832;SDS011;51290;45.060;38.948;2024-02-15T03:29:48;30.65;;;23.23;;
64832;SDS011;51290;45.060;38.948;2024-02-15T03:32:15;25.75;;;21.83;;
64832;SDS011;51290;45.060;38.948;2024-02-15T03:34:42;28.85;;;23.17;;
64832;SDS011;51290;45.060;38.948;2024-02-15T03:37:08;33.95;;;25.48;;
64832;SDS011;51290;45.060;38.948;2024-02-15T03:39:34;41.47;;;27.15;;
64832;SDS011;51290;45.060;38.948;2024-02-15T03:42:00;31.48;;;24.35;;
64832;SDS011;51290;45.060;38.948;2024-02-15T03:44:26;25.00;;;17.23;;
64832;SDS011;51290;45.060;38.948;2024-02-15T03:46:52;41.22;;;25.60;;
64832;SDS011;51290;45.060;38.948;2024-02-15T03:49:18;35.28;;;24.35;;
64832;SDS011;51290;45.060;38.948;2024-02-15T03:51:45;28.98;;;21.40;;
64832;SDS011;51290;45.060;38.948;2024-02-15T03:54:11;26.77;;;21.60;;
64832;SDS011;51290;45.060;38.948;2024-02-15T03:56:46;27.27;;;22.33;;
64832;SDS011;51290;45.060;38.948;2024-02-15T03:59:18;33.35;;;21.98;;
64832;SDS011;51290;45.060;38.948;2024-02-15T04:01:55;33.03;;;24.60;;
64832;SDS011;51290;45.060;38.948;2024-02-15T04:04:22;29.67;;;23.40;;
64832;SDS011;51290;45.060;38.948;2024-02-15T04:06:51;31.95;;;22.38;;
64832;SDS011;51290;45.060;38.948;2024-02-15T04:09:17;30.80;;;21.48;;
64832;SDS011;51290;45.060;38.948;2024-02-15T04:11:44;26.42;;;18.35;;
64832;SDS011;51290;45.060;38.948;2024-02-15T04:14:18;46.35;;;33.55;;
64832;SDS011;51290;45.060;38.948;2024-02-15T04:16:44;38.53;;;24.23;;
64832;SDS011;51290;45.060;38.948;2024-02-15T04:19:11;48.92;;;27.05;;
64832;SDS011;51290;45.060;38.948;2024-02-15T04:21:37;30.00;;;21.27;;
64832;SDS011;51290;45.060;38.948;2024-02-15T04:24:04;33.35;;;20.83;;
64832;SDS011;51290;45.060;38.948;2024-02-15T04:26:30;37.03;;;24.95;;
64832;SDS011;51290;45.060;38.948;2024-02-15T04:28:57;33.10;;;22.13;;
64832;SDS011;51290;45.060;38.948;2024-02-15T04:31:24;29.65;;;22.30;;
64832;SDS011;51290;45.060;38.948;2024-02-15T04:33:53;34.65;;;21.75;;
64832;SDS011;51290;45.060;38.948;2024-02-15T04:36:20;29.42;;;20.00;;
64832;SDS011;51290;45.060;38.948;2024-02-15T04:38:51;34.70;;;24.73;;
64832;SDS011;51290;45.060;38.948;2024-02-15T04:41:17;34.85;;;26.98;;
64832;SDS011;51290;45.060;38.948;2024-02-15T04:43:48;28.40;;;21.42;;
64832;SDS011;51290;45.060;38.948;2024-02-15T04:46:17;29.52;;;20.63;;
64832;SDS011;51290;45.060;38.948;2024-02-15T04:48:47;22.33;;;16.80;;
64832;SDS011;51290;45.060;38.948;2024-02-15T04:51:15;50.58;;;25.88;;
64832;SDS011;51290;45.060;38.948;2024-02-15T04:53:45;23.30;;;17.00;;
64832;SDS011;51290;45.060;38.948;2024-02-15T04:56:14;29.60;;;13.80;;
64832;SDS011;51290;45.060;38.948;2024-02-15T04:58:41;33.13;;;20.08;;
64832;SDS011;51290;45.060;38.948;2024-02-15T05:01:17;32.50;;;24.10;;
64832;SDS011;51290;45.060;38.948;2024-02-15T05:03:43;30.20;;;21.10;;
64832;SDS011;51290;45.060;38.948;2024-02-15T05:06:10;32.22;;;19.25;;
64832;SDS011;51290;45.060;38.948;2024-02-15T05:08:41;28.30;;;17.75;;
64832;SDS011;51290;45.060;38.948;2024-02-15T05:11:10;35.42;;;22.98;;
64832;SDS011;51290;45.060;38.948;2024-02-15T05:13:47;29.38;;;21.50;;
64832;SDS011;51290;45.060;38.948;2024-02-15T05:16:17;28.30;;;20.55;;
64832;SDS011;51290;45.060;38.948;2024-02-15T05:18:44;30.95;;;20.40;;
64832;SDS011;51290;45.060;38.948;2024-02-15T05:21:11;30.55;;;20.67;;
64832;SDS011;51290;45.060;38.948;2024-02-15T05:23:37;28.83;;;18.63;;
64832;SDS011;51290;45.060;38.948;2024-02-15T05:26:05;27.10;;;18.95;;
64832;SDS011;51290;45.060;38.948;2024-02-15T05:28:31;22.15;;;13.77;;
64832;SDS011;51290;45.060;38.948;2024-02-15T05:31:13;21.27;;;16.38;;
64832;SDS011;51290;45.060;38.948;2024-02-15T05:33:47;24.25;;;16.13;;
64832;SDS011;51290;45.060;38.948;2024-02-15T05:36:14;23.10;;;17.60;;
64832;SDS011;51290;45.060;38.948;2024-02-15T05:38:44;19.70;;;15.63;;
64832;SDS011;51290;45.060;38.948;2024-02-15T05:41:10;38.33;;;17.42;;
64832;SDS011;51290;45.060;38.948;2024-02-15T05:43:37;26.48;;;8.88;;
64832;SDS011;51290;45.060;38.948;2024-02-15T05:46:05;25.92;;;16.67;;
64832;SDS011;51290;45.060;38.948;2024-02-15T05:48:34;43.53;;;15.65;;
64832;SDS011;51290;45.060;38.948;2024-02-15T05:51:01;19.20;;;14.20;;
64832;SDS011;51290;45.060;38.948;2024-02-15T05:53:31;19.90;;;14.50;;
64832;SDS011;51290;45.060;38.948;2024-02-15T05:56:03;18.20;;;14.30;;
64832;SDS011;51290;45.060;38.948;2024-02-15T05:58:33;18.23;;;12.27;;
64832;SDS011;51290;45.060;38.948;2024-02-15T06:01:01;17.40;;;10.57;;
64832;SDS011;51290;45.060;38.948;2024-02-15T06:03:28;18.08;;;13.63;;
64832;SDS011;51290;45.060;38.948;2024-02-15T06:05:54;12.80;;;8.00;;
64832;SDS011;51290;45.060;38.948;2024-02-15T06:08:27;13.00;;;8.60;;
64832;SDS011;51290;45.060;38.948;2024-02-15T06:10:56;18.40;;;13.10;;
64832;SDS011;51290;45.060;38.948;2024-02-15T06:13:22;16.30;;;11.38;;
64832;SDS011;51290;45.060;38.948;2024-02-15T06:15:49;16.75;;;10.35;;
64832;SDS011;51290;45.060;38.948;2024-02-15T06:18:19;15.60;;;10.32;;
64832;SDS011;51290;45.060;38.948;2024-02-15T06:20:54;13.27;;;10.73;;
64832;SDS011;51290;45.060;38.948;2024-02-15T06:23:23;14.43;;;8.80;;
64832;SDS011;51290;45.060;38.948;2024-02-15T06:25:50;18.05;;;9.70;;
64832;SDS011;51290;45.060;38.948;2024-02-15T06:28:21;17.60;;;8.70;;
64832;SDS011;51290;45.060;38.948;2024-02-15T06:31:08;11.15;;;8.52;;
64832;SDS011;51290;45.060;38.948;2024-02-15T06:33:53;14.60;;;8.82;;
64832;SDS011;51290;45.060;38.948;2024-02-15T06:36:39;14.95;;;8.32;;
64832;SDS011;51290;45.060;38.948;2024-02-15T06:39:24;15.83;;;8.87;;
64832;SDS011;51290;45.060;38.948;2024-02-15T06:42:16;12.05;;;8.30;;
64832;SDS011;51290;45.060;38.948;2024-02-15T06:44:46;11.40;;;7.53;;
64832;SDS011;51290;45.060;38.948;2024-02-15T06:47:13;17.15;;;10.95;;
64832;SDS011;51290;45.060;38.948;2024-02-15T06:49:42;13.27;;;7.60;;
64832;SDS011;51290;45.060;38.948;2024-02-15T06:52:09;7.95;;;5.97;;
64832;SDS011;51290;45.060;38.948;2024-02-15T06:54:39;11.55;;;8.18;;
64832;SDS011;51290;45.060;38.948;2024-02-15T06:57:06;19.52;;;9.32;;
64832;SDS011;51290;45.060;38.948;2024-02-15T06:59:32;20.27;;;9.10;;
64832;SDS011;51290;45.060;38.948;2024-02-15T07:02:08;11.20;;;7.45;;
64832;SDS011;51290;45.060;38.948;2024-02-15T07:04:34;10.82;;;6.65;;
64832;SDS011;51290;45.060;38.948;2024-02-15T07:07:00;19.73;;;8.63;;
64832;SDS011;51290;45.060;38.948;2024-02-15T07:09:27;13.02;;;7.22;;
64832;SDS011;51290;45.060;38.948;2024-02-15T07:11:53;13.48;;;7.45;;
64832;SDS011;51290;45.060;38.948;2024-02-15T07:14:19;19.92;;;6.55;;
64832;SDS011;51290;45.060;38.948;2024-02-15T07:16:45;14.13;;;7.82;;
64832;SDS011;51290;45.060;38.948;2024-02-15T07:19:15;16.73;;;8.88;;
64832;SDS011;51290;45.060;38.948;2024-02-15T07:21:42;11.50;;;8.40;;
64832;SDS011;51290;45.060;38.948;2024-02-15T07:24:09;11.02;;;7.22;;
64832;SDS011;51290;45.060;38.948;2024-02-15T07:26:35;11.48;;;7.80;;
64832;SDS011;51290;45.060;38.948;2024-02-15T07:29:02;20.15;;;7.63;;
64832;SDS011;51290;45.060;38.948;2024-02-15T07:31:31;12.07;;;7.68;;
64832;SDS011;51290;45.060;38.948;2024-02-15T07:34:00;11.27;;;7.15;;
64832;SDS011;51290;45.060;38.948;2024-02-15T07:36:27;12.32;;;7.72;;
64832;SDS011;51290;45.060;38.948;2024-02-15T07:38:53;9.27;;;6.88;;
64832;SDS011;51290;45.060;38.948;2024-02-15T07:41:21;12.18;;;7.85;;
64832;SDS011;51290;45.060;38.948;2024-02-15T07:43:51;19.77;;;7.70;;
64832;SDS011;51290;45.060;38.948;2024-02-15T07:46:21;11.27;;;7.53;;
64832;SDS011;51290;45.060;38.948;2024-02-15T07:48:47;10.52;;;5.82;;
64832;SDS011;51290;45.060;38.948;2024-02-15T07:51:15;13.82;;;7.50;;
64832;SDS011;51290;45.060;38.948;2024-02-15T07:53:41;16.05;;;6.63;;
64832;SDS011;51290;45.060;38.948;2024-02-15T07:56:11;11.38;;;7.53;;
64832;SDS011;51290;45.060;38.948;2024-02-15T07:58:43;9.40;;;6.78;;
64832;SDS011;51290;45.060;38.948;2024-02-15T08:01:12;8.73;;;5.30;;
64832;SDS011;51290;45.060;38.948;2024-02-15T08:03:39;15.18;;;9.90;;
64832;SDS011;51290;45.060;38.948;2024-02-15T08:06:12;14.40;;;6.88;;
64832;SDS011;51290;45.060;38.948;2024-02-15T08:08:43;12.85;;;7.68;;
64832;SDS011;51290;45.060;38.948;2024-02-15T08:11:16;10.73;;;7.78;;
64832;SDS011;51290;45.060;38.948;2024-02-15T08:13:49;13.75;;;9.57;;
64832;SDS011;51290;45.060;38.948;2024-02-15T08:16:19;9.75;;;6.82;;
64832;SDS011;51290;45.060;38.948;2024-02-15T08:18:50;8.50;;;5.90;;
64832;SDS011;51290;45.060;38.948;2024-02-15T08:21:27;11.27;;;7.30;;
64832;SDS011;51290;45.060;38.948;2024-02-15T08:23:55;10.90;;;7.03;;
64832;SDS011;51290;45.060;38.948;2024-02-15T08:26:21;8.45;;;6.38;;
64832;SDS011;51290;45.060;38.948;2024-02-15T08:28:48;10.57;;;7.28;;
64832;SDS011;51290;45.060;38.948;2024-02-15T08:31:14;9.57;;;7.07;;
64832;SDS011;51290;45.060;38.948;2024-02-15T08:33:41;8.27;;;6.32;;
64832;SDS011;51290;45.060;38.948;2024-02-15T08:36:08;7.22;;;5.30;;
64832;SDS011;51290;45.060;38.948;2024-02-15T08:38:36;14.80;;;7.20;;
64832;SDS011;51290;45.060;38.948;2024-02-15T08:41:06;10.82;;;8.05;;
64832;SDS011;51290;45.060;38.948;2024-02-15T08:43:33;15.68;;;9.02;;
64832;SDS011;51290;45.060;38.948;2024-02-15T08:46:00;20.08;;;7.88;;
64832;SDS011;51290;45.060;38.948;2024-02-15T08:48:26;15.70;;;6.53;;
64832;SDS011;51290;45.060;38.948;2024-02-15T08:50:52;10.50;;;6.47;;
64832;SDS011;51290;45.060;38.948;2024-02-15T08:53:18;7.40;;;5.60;;
64832;SDS011;51290;45.060;38.948;2024-02-15T08:55:45;12.77;;;7.63;;
64832;SDS011;51290;45.060;38.948;2024-02-15T08:58:11;9.18;;;6.50;;
64832;SDS011;51290;45.060;38.948;2024-02-15T09:00:37;8.98;;;6.22;;
64832;SDS011;51290;45.060;38.948;2024-02-15T09:03:10;11.25;;;5.53;;
64832;SDS011;51290;45.060;38.948;2024-02-15T09:05:37;6.07;;;4.22;;
64832;SDS011;51290;45.060;38.948;2024-02-15T09:08:03;7.60;;;5.55;;
64832;SDS011;51290;45.060;38.948;2024-02-15T09:10:30;11.35;;;6.25;;
64832;SDS011;51290;45.060;38.948;2024-02-15T09:12:56;5.40;;;4.57;;
64832;SDS011;51290;45.060;38.948;2024-02-15T09:15:22;7.53;;;4.68;;
64832;SDS011;51290;45.060;38.948;2024-02-15T09:17:48;10.02;;;5.30;;
64832;SDS011;51290;45.060;38.948;2024-02-15T09:20:15;8.68;;;5.75;;
64832;SDS011;51290;45.060;38.948;2024-02-15T09:22:52;11.30;;;5.43;;
64832;SDS011;51290;45.060;38.948;2024-02-15T09:25:22;9.07;;;5.85;;
64832;SDS011;51290;45.060;38.948;2024-02-15T09:27:48;10.60;;;6.25;;
64832;SDS011;51290;45.060;38.948;2024-02-15T09:30:15;10.02;;;6.43;;
64832;SDS011;51290;45.060;38.948;2024-02-15T09:32:42;13.30;;;7.13;;
64832;SDS011;51290;45.060;38.948;2024-02-15T09:35:12;9.15;;;4.97;;
64832;SDS011;51290;45.060;38.948;2024-02-15T09:37:44;12.68;;;4.57;;
64832;SDS011;51290;45.060;38.948;2024-02-15T09:40:11;8.63;;;5.50;;
64832;SDS011;51290;45.060;38.948;2024-02-15T09:42:38;19.15;;;5.90;;
64832;SDS011;51290;45.060;38.948;2024-02-15T09:45:05;9.75;;;5.13;;
64832;SDS011;51290;45.060;38.948;2024-02-15T09:47:36;7.32;;;4.93;;
64832;SDS011;51290;45.060;38.948;2024-02-15T09:50:05;10.05;;;4.90;;
64832;SDS011;51290;45.060;38.948;2024-02-15T09:52:45;10.18;;;4.75;;
64832;SDS011;51290;45.060;38.948;2024-02-15T09:55:11;10.65;;;5.25;;
64832;SDS011;51290;45.060;38.948;2024-02-15T09:57:44;15.15;;;6.38;;
64832;SDS011;51290;45.060;38.948;2024-02-15T10:00:14;15.60;;;4.75;;
64832;SDS011;51290;45.060;38.948;2024-02-15T10:02:46;9.43;;;5.53;;
64832;SDS011;51290;45.060;38.948;2024-02-15T10:05:13;8.95;;;5.88;;
64832;SDS011;51290;45.060;38.948;2024-02-15T10:07:39;15.25;;;7.13;;
64832;SDS011;51290;45.060;38.948;2024-02-15T10:10:15;8.48;;;4.50;;
64832;SDS011;51290;45.060;38.948;2024-02-15T10:12:44;8.38;;;4.63;;
64832;SDS011;51290;45.060;38.948;2024-02-15T10:17:59;10.85;;;6.25;;
64832;SDS011;51290;45.060;38.948;2024-02-15T10:20:26;10.27;;;6.40;;
64832;SDS011;51290;45.060;38.948;2024-02-15T10:22:53;9.65;;;5.07;;
64832;SDS011;51290;45.060;38.948;2024-02-15T10:25:35;7.00;;;4.25;;
64832;SDS011;51290;45.060;38.948;2024-02-15T10:28:02;5.95;;;3.70;;
64832;SDS011;51290;45.060;38.948;2024-02-15T10:30:33;8.13;;;5.32;;
64832;SDS011;51290;45.060;38.948;2024-02-15T10:33:00;9.57;;;5.57;;
64832;SDS011;51290;45.060;38.948;2024-02-15T10:35:30;12.55;;;6.13;;
64832;SDS011;51290;45.060;38.948;2024-02-15T10:38:06;6.47;;;4.75;;
64832;SDS011;51290;45.060;38.948;2024-02-15T10:40:35;5.25;;;3.20;;
64832;SDS011;51290;45.060;38.948;2024-02-15T10:43:04;6.03;;;4.43;;
64832;SDS011;51290;45.060;38.948;2024-02-15T10:45:31;12.23;;;5.55;;
64832;SDS011;51290;45.060;38.948;2024-02-15T10:47:58;10.40;;;5.18;;
64832;SDS011;51290;45.060;38.948;2024-02-15T10:50:24;6.45;;;4.53;;
64832;SDS011;51290;45.060;38.948;2024-02-15T10:52:57;10.00;;;5.15;;
64832;SDS011;51290;45.060;38.948;2024-02-15T10:58:06;11.25;;;5.25;;
64832;SDS011;51290;45.060;38.948;2024-02-15T11:00:33;7.15;;;4.93;;
64832;SDS011;51290;45.060;38.948;2024-02-15T11:03:05;9.55;;;5.53;;
64832;SDS011;51290;45.060;38.948;2024-02-15T11:05:34;12.02;;;6.57;;
64832;SDS011;51290;45.060;38.948;2024-02-15T11:08:03;7.53;;;4.70;;
64832;SDS011;51290;45.060;38.948;2024-02-15T11:10:32;13.05;;;5.32;;
64832;SDS011;51290;45.060;38.948;2024-02-15T11:13:02;10.02;;;5.90;;
64832;SDS011;51290;45.060;38.948;2024-02-15T11:18:01;7.80;;;5.30;;
64832;SDS011;51290;45.060;38.948;2024-02-15T11:22:58;8.07;;;5.38;;
64832;SDS011;51290;45.060;38.948;2024-02-15T11:25:35;9.07;;;4.78;;
64832;SDS011;51290;45.060;38.948;2024-02-15T11:30:52;6.57;;;3.67;;
64832;SDS011;51290;45.060;38.948;2024-02-15T11:33:27;9.77;;;5.07;;
64832;SDS011;51290;45.060;38.948;2024-02-15T11:36:15;6.28;;;4.50;;
64832;SDS011;51290;45.060;38.948;2024-02-15T11:38:42;12.85;;;4.82;;
64832;SDS011;51290;45.060;38.948;2024-02-15T11:41:09;8.07;;;4.80;;
64832;SDS011;51290;45.060;38.948;2024-02-15T11:46:21;6.20;;;4.32;;
64832;SDS011;51290;45.060;38.948;2024-02-15T11:48:59;5.60;;;3.50;;
64832;SDS011;51290;45.060;38.948;2024-02-15T11:51:30;7.88;;;5.40;;
64832;SDS011;51290;45.060;38.948;2024-02-15T11:54:10;21.63;;;5.95;;
64832;SDS011;51290;45.060;38.948;2024-02-15T11:59:19;6.80;;;4.43;;
64832;SDS011;51290;45.060;38.948;2024-02-15T12:01:57;8.68;;;4.70;;
64832;SDS011;51290;45.060;38.948;2024-02-15T12:04:42;12.60;;;5.30;;
64832;SDS011;51290;45.060;38.948;2024-02-15T12:07:28;7.18;;;4.95;;
64832;SDS011;51290;45.060;38.948;2024-02-15T12:10:18;4.78;;;3.60;;
64832;SDS011;51290;45.060;38.948;2024-02-15T12:13:03;11.40;;;5.20;;
64832;SDS011;51290;45.060;38.948;2024-02-15T12:15:58;9.52;;;3.63;;
64832;SDS011;51290;45.060;38.948;2024-02-15T12:18:43;15.40;;;6.68;;
64832;SDS011;51290;45.060;38.948;2024-02-15T12:21:16;12.27;;;6.47;;
64832;SDS011;51290;45.060;38.948;2024-02-15T12:23:54;8.70;;;5.35;;
64832;SDS011;51290;45.060;38.948;2024-02-15T12:26:21;10.48;;;7.13;;
64832;SDS011;51290;45.060;38.948;2024-02-15T12:28:53;8.85;;;6.03;;
64832;SDS011;51290;45.060;38.948;2024-02-15T12:31:26;15.20;;;8.30;;
64832;SDS011;51290;45.060;38.948;2024-02-15T12:34:01;20.63;;;7.88;;
64832;SDS011;51290;45.060;38.948;2024-02-15T12:36:32;13.77;;;8.95;;
64832;SDS011;51290;45.060;38.948;2024-02-15T12:39:05;13.68;;;6.95;;
64832;SDS011;51290;45.060;38.948;2024-02-15T12:41:47;10.38;;;5.80;;
64832;SDS011;51290;45.060;38.948;2024-02-15T12:44:15;10.40;;;7.53;;
64832;SDS011;51290;45.060;38.948;2024-02-15T12:46:43;21.23;;;7.30;;
64832;SDS011;51290;45.060;38.948;2024-02-15T12:51:50;14.73;;;8.60;;
64832;SDS011;51290;45.060;38.948;2024-02-15T12:54:21;17.33;;;9.35;;
64832;SDS011;51290;45.060;38.948;2024-02-15T12:56:48;13.13;;;8.20;;
64832;SDS011;51290;45.060;38.948;2024-02-15T12:59:14;10.60;;;7.88;;
64832;SDS011;51290;45.060;38.948;2024-02-15T13:01:41;8.50;;;5.15;;
64832;SDS011;51290;45.060;38.948;2024-02-15T13:04:08;13.98;;;8.40;;
64832;SDS011;51290;45.060;38.948;2024-02-15T13:06:34;16.02;;;9.20;;
64832;SDS011;51290;45.060;38.948;2024-02-15T13:09:04;14.70;;;8.38;;
64832;SDS011;51290;45.060;38.948;2024-02-15T13:11:31;9.73;;;5.80;;
64832;SDS011;51290;45.060;38.948;2024-02-15T13:13:59;8.80;;;6.70;;
64832;SDS011;51290;45.060;38.948;2024-02-15T13:16:25;12.10;;;8.48;;
64832;SDS011;51290;45.060;38.948;2024-02-15T13:18:53;10.95;;;7.30;;
64832;SDS011;51290;45.060;38.948;2024-02-15T13:21:19;15.27;;;8.52;;
64832;SDS011;51290;45.060;38.948;2024-02-15T13:23:46;14.60;;;6.65;;
64832;SDS011;51290;45.060;38.948;2024-02-15T13:26:13;8.18;;;6.00;;
64832;SDS011;51290;45.060;38.948;2024-02-15T13:28:40;15.52;;;10.98;;
64832;SDS011;51290;45.060;38.948;2024-02-15T13:31:06;16.60;;;11.35;;
64832;SDS011;51290;45.060;38.948;2024-02-15T13:33:32;10.52;;;7.63;;
64832;SDS011;51290;45.060;38.948;2024-02-15T13:35:58;9.00;;;5.55;;
64832;SDS011;51290;45.060;38.948;2024-02-15T13:38:24;14.75;;;9.25;;
64832;SDS011;51290;45.060;38.948;2024-02-15T13:40:51;15.68;;;10.30;;
64832;SDS011;51290;45.060;38.948;2024-02-15T13:43:20;15.70;;;11.32;;
64832;SDS011;51290;45.060;38.948;2024-02-15T13:45:46;13.57;;;10.35;;
64832;SDS011;51290;45.060;38.948;2024-02-15T13:48:13;12.85;;;10.40;;
64832;SDS011;51290;45.060;38.948;2024-02-15T13:50:41;13.10;;;9.82;;
64832;SDS011;51290;45.060;38.948;2024-02-15T13:53:08;11.43;;;8.40;;
64832;SDS011;51290;45.060;38.948;2024-02-15T13:55:34;14.82;;;9.90;;
64832;SDS011;51290;45.060;38.948;2024-02-15T13:58:02;16.58;;;10.32;;
64832;SDS011;51290;45.060;38.948;2024-02-15T14:00:28;14.43;;;8.90;;
64832;SDS011;51290;45.060;38.948;2024-02-15T14:02:59;11.82;;;7.13;;
64832;SDS011;51290;45.060;38.948;2024-02-15T14:05:27;10.43;;;6.28;;
64832;SDS011;51290;45.060;38.948;2024-02-15T14:07:58;14.88;;;8.82;;
64832;SDS011;51290;45.060;38.948;2024-02-15T14:10:26;16.88;;;8.98;;
64832;SDS011;51290;45.060;38.948;2024-02-15T14:12:54;16.33;;;11.65;;
64832;SDS011;51290;45.060;38.948;2024-02-15T14:15:31;23.90;;;15.27;;
64832;SDS011;51290;45.060;38.948;2024-02-15T14:18:08;15.73;;;12.02;;
64832;SDS011;51290;45.060;38.948;2024-02-15T14:20:47;16.95;;;11.57;;
64832;SDS011;51290;45.060;38.948;2024-02-15T14:23:14;14.52;;;9.93;;
64832;SDS011;51290;45.060;38.948;2024-02-15T14:25:41;13.65;;;10.40;;
64832;SDS011;51290;45.060;38.948;2024-02-15T14:28:08;12.73;;;8.30;;
64832;SDS011;51290;45.060;38.948;2024-02-15T14:30:34;15.23;;;9.80;;
64832;SDS011;51290;45.060;38.948;2024-02-15T14:33:30;15.18;;;8.85;;
64832;SDS011;51290;45.060;38.948;2024-02-15T14:35:57;22.30;;;11.60;;
64832;SDS011;51290;45.060;38.948;2024-02-15T14:38:24;16.15;;;11.82;;
64832;SDS011;51290;45.060;38.948;2024-02-15T14:40:50;10.55;;;7.55;;
64832;SDS011;51290;45.060;38.948;2024-02-15T14:43:23;12.10;;;8.88;;
64832;SDS011;51290;45.060;38.948;2024-02-15T14:45:51;14.52;;;9.38;;
64832;SDS011;51290;45.060;38.948;2024-02-15T14:48:18;15.93;;;12.27;;
64832;SDS011;51290;45.060;38.948;2024-02-15T14:50:45;18.88;;;12.50;;
64832;SDS011;51290;45.060;38.948;2024-02-15T14:53:12;27.83;;;14.18;;
64832;SDS011;51290;45.060;38.948;2024-02-15T14:55:40;12.63;;;9.13;;